sensor_id;sensor_type;location;lat;lon;timestamp;pressure;altitude;pressure_sealevel;temperature;humidity
48015;BME280;33780;51.034;7.120;2023-02-12T00:00:37;102977.34;;;7.49;81.46
48015;BME280;33780;51.034;7.120;2023-02-12T00:03:02;102980.94;;;7.48;81.55
48015;BME280;33780;51.034;7.120;2023-02-12T00:05:28;102970.28;;;7.48;81.63
48015;BME280;33780;51.034;7.120;2023-02-12T00:07:53;102973.00;;;7.47;81.59
48015;BME280;33780;51.034;7.120;2023-02-12T00:10:18;102973.00;;;7.47;81.24
48015;BME280;33780;51.034;7.120;2023-02-12T00:12:44;102975.72;;;7.45;81.67
48015;BME280;33780;51.034;7.120;2023-02-12T00:15:09;102985.44;;;7.46;81.77
48015;BME280;33780;51.034;7.120;2023-02-12T00:17:34;102981.03;;;7.45;81.24
48015;BME280;33780;51.034;7.120;2023-02-12T00:19:59;102980.19;;;7.45;81.86
48015;BME280;33780;51.034;7.120;2023-02-12T00:22:25;102980.19;;;7.45;81.27
48015;BME280;33780;51.034;7.120;2023-02-12T00:24:50;102979.25;;;7.46;81.34
48015;BME280;33780;51.034;7.120;2023-02-12T00:27:15;102972.19;;;7.45;81.62
48015;BME280;33780;51.034;7.120;2023-02-12T00:29:41;102973.97;;;7.44;81.52
48015;BME280;33780;51.034;7.120;2023-02-12T00:32:06;102972.25;;;7.43;81.62
48015;BME280;33780;51.034;7.120;2023-02-12T00:34:31;102969.59;;;7.43;81.73
48015;BME280;33780;51.034;7.120;2023-02-12T00:36:56;102977.56;;;7.43;81.63
48015;BME280;33780;51.034;7.120;2023-02-12T00:39:22;102972.25;;;7.43;81.27
48015;BME280;33780;51.034;7.120;2023-02-12T00:41:47;102968.72;;;7.43;81.64
48015;BME280;33780;51.034;7.120;2023-02-12T00:44:12;102970.50;;;7.42;81.76
48015;BME280;33780;51.034;7.120;2023-02-12T00:46:37;102968.78;;;7.41;81.42
48015;BME280;33780;51.034;7.120;2023-02-12T00:49:03;102970.50;;;7.42;81.72
48015;BME280;33780;51.034;7.120;2023-02-12T00:51:28;102967.84;;;7.42;81.91
48015;BME280;33780;51.034;7.120;2023-02-12T00:53:54;102970.50;;;7.42;81.66
48015;BME280;33780;51.034;7.120;2023-02-12T00:56:19;102970.50;;;7.42;81.68
48015;BME280;33780;51.034;7.120;2023-02-12T00:58:45;102964.31;;;7.42;81.70
48015;BME280;33780;51.034;7.120;2023-02-12T01:01:10;102966.97;;;7.42;81.39
48015;BME280;33780;51.034;7.120;2023-02-12T01:03:35;102967.91;;;7.41;81.60
48015;BME280;33780;51.034;7.120;2023-02-12T01:06:01;102962.56;;;7.41;81.61
48015;BME280;33780;51.034;7.120;2023-02-12T01:08:26;102972.38;;;7.40;81.32
48015;BME280;33780;51.034;7.120;2023-02-12T01:10:56;102968.81;;;7.40;81.03
48015;BME280;33780;51.034;7.120;2023-02-12T01:13:22;102959.97;;;7.39;81.14
48015;BME280;33780;51.034;7.120;2023-02-12T01:15:49;102967.09;;;7.39;81.57
48015;BME280;33780;51.034;7.120;2023-02-12T01:18:14;102966.22;;;7.38;81.85
48015;BME280;33780;51.034;7.120;2023-02-12T01:20:40;102970.75;;;7.36;81.33
48015;BME280;33780;51.034;7.120;2023-02-12T01:23:05;102965.41;;;7.36;81.52
48015;BME280;33780;51.034;7.120;2023-02-12T01:25:32;102968.09;;;7.35;81.32
48015;BME280;33780;51.034;7.120;2023-02-12T01:27:57;102969.03;;;7.34;81.08
48015;BME280;33780;51.034;7.120;2023-02-12T01:30:23;102975.22;;;7.34;81.06
48015;BME280;33780;51.034;7.120;2023-02-12T01:32:49;102967.22;;;7.34;81.51
48015;BME280;33780;51.034;7.120;2023-02-12T01:35:14;102960.16;;;7.33;81.36
48015;BME280;33780;51.034;7.120;2023-02-12T01:37:39;102963.75;;;7.32;81.33
48015;BME280;33780;51.034;7.120;2023-02-12T01:40:06;102955.78;;;7.32;81.45
48015;BME280;33780;51.034;7.120;2023-02-12T01:42:32;102961.97;;;7.33;81.57
48015;BME280;33780;51.034;7.120;2023-02-12T01:47:39;102964.69;;;7.31;81.55
48015;BME280;33780;51.034;7.120;2023-02-12T01:50:07;102962.09;;;7.30;81.00
48015;BME280;33780;51.034;7.120;2023-02-12T01:52:35;102967.41;;;7.30;81.24
48015;BME280;33780;51.034;7.120;2023-02-12T01:55:05;102969.25;;;7.27;81.25
48015;BME280;33780;51.034;7.120;2023-02-12T01:57:33;102963.19;;;7.24;81.59
48015;BME280;33780;51.034;7.120;2023-02-12T02:00:00;102965.03;;;7.22;81.64
48015;BME280;33780;51.034;7.120;2023-02-12T02:02:27;102959.72;;;7.22;81.33
48015;BME280;33780;51.034;7.120;2023-02-12T02:04:59;102967.69;;;7.22;81.18
48015;BME280;33780;51.034;7.120;2023-02-12T02:07:26;102968.56;;;7.22;81.59
48015;BME280;33780;51.034;7.120;2023-02-12T02:09:51;102962.38;;;7.22;81.19
48015;BME280;33780;51.034;7.120;2023-02-12T02:12:17;102967.75;;;7.20;81.35
48015;BME280;33780;51.034;7.120;2023-02-12T02:15:02;102961.63;;;7.18;81.16
48015;BME280;33780;51.034;7.120;2023-02-12T02:17:50;102960.78;;;7.16;81.18
48015;BME280;33780;51.034;7.120;2023-02-12T02:21:01;102955.44;;;7.16;81.30
48015;BME280;33780;51.034;7.120;2023-02-12T02:26:25;102959.03;;;7.15;80.96
48015;BME280;33780;51.034;7.120;2023-02-12T02:32:11;102960.84;;;7.15;81.07
48015;BME280;33780;51.034;7.120;2023-02-12T02:37:26;102954.63;;;7.14;81.55
48015;BME280;33780;51.034;7.120;2023-02-12T02:39:57;102953.78;;;7.14;81.11
48015;BME280;33780;51.034;7.120;2023-02-12T02:42:30;102947.56;;;7.13;81.15
48015;BME280;33780;51.034;7.120;2023-02-12T02:45:07;102947.56;;;7.13;81.09
48015;BME280;33780;51.034;7.120;2023-02-12T02:47:52;102946.72;;;7.13;81.57
48015;BME280;33780;51.034;7.120;2023-02-12T02:50:22;102945.78;;;7.14;81.36
48015;BME280;33780;51.034;7.120;2023-02-12T02:52:56;102944.84;;;7.15;81.19
48015;BME280;33780;51.034;7.120;2023-02-12T02:55:29;102951.97;;;7.14;81.20
48015;BME280;33780;51.034;7.120;2023-02-12T02:58:00;102952.84;;;7.15;81.08
48015;BME280;33780;51.034;7.120;2023-02-12T03:00:33;102945.78;;;7.14;80.97
48015;BME280;33780;51.034;7.120;2023-02-12T03:03:19;102947.56;;;7.13;81.19
48015;BME280;33780;51.034;7.120;2023-02-12T03:05:49;102947.63;;;7.12;81.30
48015;BME280;33780;51.034;7.120;2023-02-12T03:08:23;102951.16;;;7.12;80.88
48015;BME280;33780;51.034;7.120;2023-02-12T03:10:58;102951.16;;;7.12;81.30
48015;BME280;33780;51.034;7.120;2023-02-12T03:13:31;102952.03;;;7.13;81.35
48015;BME280;33780;51.034;7.120;2023-02-12T03:15:59;102950.34;;;7.10;81.59
48015;BME280;33780;51.034;7.120;2023-02-12T03:18:33;102951.28;;;7.09;80.78
48015;BME280;33780;51.034;7.120;2023-02-12T03:21:04;102953.00;;;7.10;81.13
48015;BME280;33780;51.034;7.120;2023-02-12T03:23:37;102946.88;;;7.08;80.91
48015;BME280;33780;51.034;7.120;2023-02-12T03:26:12;102950.41;;;7.09;81.13
48015;BME280;33780;51.034;7.120;2023-02-12T03:28:39;102945.09;;;7.09;81.19
48015;BME280;33780;51.034;7.120;2023-02-12T03:31:19;102952.16;;;7.10;81.08
48015;BME280;33780;51.034;7.120;2023-02-12T03:34:23;102953.00;;;7.10;81.08
48015;BME280;33780;51.034;7.120;2023-02-12T03:37:00;102949.47;;;7.10;81.19
48015;BME280;33780;51.034;7.120;2023-02-12T03:39:32;102944.16;;;7.10;81.40
48015;BME280;33780;51.034;7.120;2023-02-12T03:42:10;102939.72;;;7.10;81.45
48015;BME280;33780;51.034;7.120;2023-02-12T03:44:45;102944.16;;;7.10;81.33
48015;BME280;33780;51.034;7.120;2023-02-12T03:47:22;102939.72;;;7.10;81.27
48015;BME280;33780;51.034;7.120;2023-02-12T03:50:09;102937.91;;;7.11;81.58
48015;BME280;33780;51.034;7.120;2023-02-12T03:52:37;102935.25;;;7.11;81.14
48015;BME280;33780;51.034;7.120;2023-02-12T03:55:03;102947.69;;;7.10;81.65
48015;BME280;33780;51.034;7.120;2023-02-12T03:57:32;102945.94;;;7.09;81.08
48015;BME280;33780;51.034;7.120;2023-02-12T04:00:02;102949.47;;;7.10;81.67
48015;BME280;33780;51.034;7.120;2023-02-12T04:02:28;102941.50;;;7.10;81.63
48015;BME280;33780;51.034;7.120;2023-02-12T04:04:53;102939.75;;;7.09;81.70
48015;BME280;33780;51.034;7.120;2023-02-12T04:07:19;102944.97;;;7.12;81.24
48015;BME280;33780;51.034;7.120;2023-02-12T04:09:44;102942.31;;;7.12;81.56
48015;BME280;33780;51.034;7.120;2023-02-12T04:25:45;102949.44;;;7.11;81.28
48015;BME280;33780;51.034;7.120;2023-02-12T04:31:05;102974.31;;;7.10;81.75
48015;BME280;33780;51.034;7.120;2023-02-12T04:33:37;102964.59;;;7.09;81.54
48015;BME280;33780;51.034;7.120;2023-02-12T04:36:10;102976.09;;;7.10;81.01
48015;BME280;33780;51.034;7.120;2023-02-12T04:38:45;102974.38;;;7.09;81.53
48015;BME280;33780;51.034;7.120;2023-02-12T04:41:14;102977.09;;;7.07;81.06
48015;BME280;33780;51.034;7.120;2023-02-12T04:43:39;102969.97;;;7.08;81.45
48015;BME280;33780;51.034;7.120;2023-02-12T04:46:06;102975.31;;;7.08;81.54
48015;BME280;33780;51.034;7.120;2023-02-12T04:48:32;102975.34;;;7.06;81.52
48015;BME280;33780;51.034;7.120;2023-02-12T04:50:58;102978.88;;;7.07;81.16
48015;BME280;33780;51.034;7.120;2023-02-12T04:53:24;102976.16;;;7.08;81.35
48015;BME280;33780;51.034;7.120;2023-02-12T04:55:49;102977.03;;;7.09;81.77
48015;BME280;33780;51.034;7.120;2023-02-12T04:58:15;102980.56;;;7.09;81.51
48015;BME280;33780;51.034;7.120;2023-02-12T05:00:40;102984.16;;;7.08;81.38
48015;BME280;33780;51.034;7.120;2023-02-12T05:03:06;102977.91;;;7.09;81.81
48015;BME280;33780;51.034;7.120;2023-02-12T05:05:31;102972.59;;;7.09;81.28
48015;BME280;33780;51.034;7.120;2023-02-12T05:07:56;102975.25;;;7.09;81.17
48015;BME280;33780;51.034;7.120;2023-02-12T05:10:22;102978.78;;;7.10;81.66
48015;BME280;33780;51.034;7.120;2023-02-12T05:12:47;102977.91;;;7.09;81.36
48015;BME280;33780;51.034;7.120;2023-02-12T05:15:15;102977.91;;;7.09;81.59
48015;BME280;33780;51.034;7.120;2023-02-12T05:17:40;102971.75;;;7.07;81.65
48015;BME280;33780;51.034;7.120;2023-02-12T05:20:06;102974.38;;;7.09;81.26
48015;BME280;33780;51.034;7.120;2023-02-12T05:22:32;102973.56;;;7.07;81.56
48015;BME280;33780;51.034;7.120;2023-02-12T05:24:57;102976.22;;;7.07;81.61
48015;BME280;33780;51.034;7.120;2023-02-12T05:27:22;102987.78;;;7.06;81.25
48015;BME280;33780;51.034;7.120;2023-02-12T05:29:47;102987.78;;;7.06;81.52
48015;BME280;33780;51.034;7.120;2023-02-12T05:32:13;102980.69;;;7.06;81.67
48015;BME280;33780;51.034;7.120;2023-02-12T05:34:38;102982.53;;;7.04;81.31
48015;BME280;33780;51.034;7.120;2023-02-12T05:37:03;102984.25;;;7.05;81.20
48015;BME280;33780;51.034;7.120;2023-02-12T05:39:29;102988.72;;;7.05;81.29
48015;BME280;33780;51.034;7.120;2023-02-12T05:41:54;102989.66;;;7.04;81.38
48015;BME280;33780;51.034;7.120;2023-02-12T05:44:19;102990.53;;;7.04;81.48
48015;BME280;33780;51.034;7.120;2023-02-12T05:46:44;102986.06;;;7.05;81.17
48015;BME280;33780;51.034;7.120;2023-02-12T05:49:10;102985.19;;;7.04;81.58
48015;BME280;33780;51.034;7.120;2023-02-12T05:51:36;102994.91;;;7.05;81.68
48015;BME280;33780;51.034;7.120;2023-02-12T05:54:03;103000.25;;;7.05;81.23
48015;BME280;33780;51.034;7.120;2023-02-12T05:56:38;102997.63;;;7.04;81.44
48015;BME280;33780;51.034;7.120;2023-02-12T05:59:07;103000.25;;;7.05;81.74
48015;BME280;33780;51.034;7.120;2023-02-12T06:01:36;102998.44;;;7.06;81.84
48015;BME280;33780;51.034;7.120;2023-02-12T06:04:04;103003.78;;;7.06;81.76
48015;BME280;33780;51.034;7.120;2023-02-12T06:06:30;103006.38;;;7.07;81.31
48015;BME280;33780;51.034;7.120;2023-02-12T06:08:56;103001.09;;;7.06;81.59
48015;BME280;33780;51.034;7.120;2023-02-12T06:11:22;103000.19;;;7.07;81.29
48015;BME280;33780;51.034;7.120;2023-02-12T06:13:48;102997.53;;;7.07;81.92
48015;BME280;33780;51.034;7.120;2023-02-12T06:18:42;102997.53;;;7.07;81.47
48015;BME280;33780;51.034;7.120;2023-02-12T06:21:07;102997.53;;;7.07;81.72
48015;BME280;33780;51.034;7.120;2023-02-12T06:23:32;102993.94;;;7.08;81.37
48015;BME280;33780;51.034;7.120;2023-02-12T06:25:57;102993.00;;;7.09;81.43
48015;BME280;33780;51.034;7.120;2023-02-12T06:28:23;102994.81;;;7.08;81.46
48015;BME280;33780;51.034;7.120;2023-02-12T06:30:48;102993.88;;;7.09;81.64
48015;BME280;33780;51.034;7.120;2023-02-12T06:33:14;102994.81;;;7.08;81.78
48015;BME280;33780;51.034;7.120;2023-02-12T06:35:39;102998.34;;;7.09;81.74
48015;BME280;33780;51.034;7.120;2023-02-12T06:38:04;102998.34;;;7.09;81.86
48015;BME280;33780;51.034;7.120;2023-02-12T06:40:30;103000.13;;;7.08;81.28
48015;BME280;33780;51.034;7.120;2023-02-12T06:42:55;103002.78;;;7.08;81.64
48015;BME280;33780;51.034;7.120;2023-02-12T06:45:20;103004.53;;;7.09;81.85
48015;BME280;33780;51.034;7.120;2023-02-12T06:47:46;103009.91;;;7.08;82.10
48015;BME280;33780;51.034;7.120;2023-02-12T06:50:11;103010.78;;;7.08;82.16
48015;BME280;33780;51.034;7.120;2023-02-12T06:52:36;103010.78;;;7.08;81.58
48015;BME280;33780;51.034;7.120;2023-02-12T06:55:02;103008.13;;;7.08;82.06
48015;BME280;33780;51.034;7.120;2023-02-12T06:57:27;103024.03;;;7.10;81.75
48015;BME280;33780;51.034;7.120;2023-02-12T06:59:53;103023.16;;;7.09;81.61
48015;BME280;33780;51.034;7.120;2023-02-12T07:02:18;103024.91;;;7.10;81.83
48015;BME280;33780;51.034;7.120;2023-02-12T07:04:44;103026.69;;;7.10;81.41
48015;BME280;33780;51.034;7.120;2023-02-12T07:07:09;103027.56;;;7.10;81.80
48015;BME280;33780;51.034;7.120;2023-02-12T07:09:34;103031.97;;;7.11;82.14
48015;BME280;33780;51.034;7.120;2023-02-12T07:11:59;103033.72;;;7.12;81.62
48015;BME280;33780;51.034;7.120;2023-02-12T07:14:25;103035.44;;;7.13;81.77
48015;BME280;33780;51.034;7.120;2023-02-12T07:16:53;103038.09;;;7.13;82.05
48015;BME280;33780;51.034;7.120;2023-02-12T07:19:18;103040.72;;;7.15;81.97
48015;BME280;33780;51.034;7.120;2023-02-12T07:21:43;103045.13;;;7.16;81.79
48015;BME280;33780;51.034;7.120;2023-02-12T07:24:10;103038.88;;;7.17;81.71
48015;BME280;33780;51.034;7.120;2023-02-12T07:26:39;103042.38;;;7.19;82.17
48015;BME280;33780;51.034;7.120;2023-02-12T07:29:05;103049.50;;;7.18;82.00
48015;BME280;33780;51.034;7.120;2023-02-12T07:31:30;103043.25;;;7.19;81.85
48015;BME280;33780;51.034;7.120;2023-02-12T07:33:57;103038.78;;;7.20;82.10
48015;BME280;33780;51.034;7.120;2023-02-12T07:36:26;103053.78;;;7.22;81.90
48015;BME280;33780;51.034;7.120;2023-02-12T07:38:53;103047.59;;;7.22;81.76
48015;BME280;33780;51.034;7.120;2023-02-12T07:41:23;103049.31;;;7.23;82.20
48015;BME280;33780;51.034;7.120;2023-02-12T07:43:54;103047.53;;;7.23;81.61
48015;BME280;33780;51.034;7.120;2023-02-12T07:46:22;103052.81;;;7.25;82.41
48015;BME280;33780;51.034;7.120;2023-02-12T07:48:50;103051.88;;;7.26;81.80
48015;BME280;33780;51.034;7.120;2023-02-12T07:51:17;103057.16;;;7.27;82.38
48015;BME280;33780;51.034;7.120;2023-02-12T07:53:46;103060.63;;;7.30;81.99
48015;BME280;33780;51.034;7.120;2023-02-12T07:56:13;103059.69;;;7.31;81.87
48015;BME280;33780;51.034;7.120;2023-02-12T07:58:40;103058.78;;;7.32;81.89
48015;BME280;33780;51.034;7.120;2023-02-12T08:01:13;103059.59;;;7.34;82.40
48015;BME280;33780;51.034;7.120;2023-02-12T08:03:38;103069.31;;;7.35;81.75
48015;BME280;33780;51.034;7.120;2023-02-12T08:06:24;103069.28;;;7.36;82.24
48015;BME280;33780;51.034;7.120;2023-02-12T08:08:54;103065.66;;;7.39;81.99
48015;BME280;33780;51.034;7.120;2023-02-12T08:11:20;103070.06;;;7.40;82.28
48015;BME280;33780;51.034;7.120;2023-02-12T08:13:45;103071.78;;;7.41;82.27
48015;BME280;33780;51.034;7.120;2023-02-12T08:16:13;103064.63;;;7.43;82.10
48015;BME280;33780;51.034;7.120;2023-02-12T08:18:39;103068.09;;;7.45;82.43
48015;BME280;33780;51.034;7.120;2023-02-12T08:21:13;103068.03;;;7.46;81.92
48015;BME280;33780;51.034;7.120;2023-02-12T08:23:40;103067.91;;;7.49;82.49
48015;BME280;33780;51.034;7.120;2023-02-12T08:26:07;103071.41;;;7.51;82.45
48015;BME280;33780;51.034;7.120;2023-02-12T08:28:33;103072.22;;;7.53;82.11
48015;BME280;33780;51.034;7.120;2023-02-12T08:31:08;103081.03;;;7.55;81.97
48015;BME280;33780;51.034;7.120;2023-02-12T08:33:34;103081.81;;;7.59;82.51
48015;BME280;33780;51.034;7.120;2023-02-12T08:36:04;103083.47;;;7.62;81.96
48015;BME280;33780;51.034;7.120;2023-02-12T08:38:31;103086.97;;;7.64;82.12
48015;BME280;33780;51.034;7.120;2023-02-12T08:41:05;103087.66;;;7.69;82.15
48015;BME280;33780;51.034;7.120;2023-02-12T08:43:31;103077.81;;;7.71;82.22
48015;BME280;33780;51.034;7.120;2023-02-12T08:46:01;103079.53;;;7.73;82.32
48015;BME280;33780;51.034;7.120;2023-02-12T08:48:27;103078.53;;;7.76;82.48
48015;BME280;33780;51.034;7.120;2023-02-12T08:54:23;103074.88;;;7.78;82.28
48015;BME280;33780;51.034;7.120;2023-02-12T08:56:49;103077.44;;;7.81;82.29
48015;BME280;33780;51.034;7.120;2023-02-12T09:10:13;103074.25;;;7.95;82.55
48015;BME280;33780;51.034;7.120;2023-02-12T09:23:15;103081.63;;;8.12;82.53
48015;BME280;33780;51.034;7.120;2023-02-12T09:28:54;103092.81;;;8.22;82.50
48015;BME280;33780;51.034;7.120;2023-02-12T09:34:35;103084.53;;;8.29;83.13
48015;BME280;33780;51.034;7.120;2023-02-12T09:37:06;103087.94;;;8.33;82.63
48015;BME280;33780;51.034;7.120;2023-02-12T09:39:41;103079.78;;;8.37;82.61
48015;BME280;33780;51.034;7.120;2023-02-12T09:45:17;103083.97;;;8.44;82.88
48015;BME280;33780;51.034;7.120;2023-02-12T09:47:49;103080.31;;;8.47;82.51
48015;BME280;33780;51.034;7.120;2023-02-12T09:50:42;103087.19;;;8.53;82.73
48015;BME280;33780;51.034;7.120;2023-02-12T09:53:14;103079.94;;;8.56;83.04
48015;BME280;33780;51.034;7.120;2023-02-12T09:55:40;103078.94;;;8.59;82.75
48015;BME280;33780;51.034;7.120;2023-02-12T09:58:13;103087.72;;;8.62;82.89
48015;BME280;33780;51.034;7.120;2023-02-12T10:00:42;103083.19;;;8.64;83.11
48015;BME280;33780;51.034;7.120;2023-02-12T10:03:14;103088.41;;;8.67;82.73
48015;BME280;33780;51.034;7.120;2023-02-12T10:05:45;103086.41;;;8.72;82.82
48015;BME280;33780;51.034;7.120;2023-02-12T10:08:38;103090.56;;;8.79;82.90
48015;BME280;33780;51.034;7.120;2023-02-12T10:13:47;103090.28;;;8.87;82.42
48015;BME280;33780;51.034;7.120;2023-02-12T10:17:22;103088.28;;;8.92;82.56
48015;BME280;33780;51.034;7.120;2023-02-12T10:22:24;103088.72;;;9.03;82.30
48015;BME280;33780;51.034;7.120;2023-02-12T10:27:36;103082.09;;;9.12;81.99
48015;BME280;33780;51.034;7.120;2023-02-12T10:30:13;103089.06;;;9.16;82.03
48015;BME280;33780;51.034;7.120;2023-02-12T10:32:39;103087.06;;;9.21;82.10
48015;BME280;33780;51.034;7.120;2023-02-12T10:35:13;103085.13;;;9.25;81.76
48015;BME280;33780;51.034;7.120;2023-02-12T10:37:44;103084.06;;;9.29;81.32
48015;BME280;33780;51.034;7.120;2023-02-12T10:40:20;103082.13;;;9.32;81.48
48015;BME280;33780;51.034;7.120;2023-02-12T10:42:49;103085.56;;;9.36;80.99
48015;BME280;33780;51.034;7.120;2023-02-12T10:45:36;103083.63;;;9.39;80.97
48015;BME280;33780;51.034;7.120;2023-02-12T10:48:12;103074.66;;;9.41;80.61
48015;BME280;33780;51.034;7.120;2023-02-12T10:50:55;103077.25;;;9.42;80.35
48015;BME280;33780;51.034;7.120;2023-02-12T10:53:30;103078.88;;;9.46;80.60
48015;BME280;33780;51.034;7.120;2023-02-12T10:56:17;103076.91;;;9.50;80.65
48015;BME280;33780;51.034;7.120;2023-02-12T10:58:52;103075.00;;;9.53;80.58
48015;BME280;33780;51.034;7.120;2023-02-12T11:01:27;103080.22;;;9.56;80.40
48015;BME280;33780;51.034;7.120;2023-02-12T11:03:55;103068.50;;;9.59;80.18
48015;BME280;33780;51.034;7.120;2023-02-12T11:06:31;103071.97;;;9.61;80.16
48015;BME280;33780;51.034;7.120;2023-02-12T11:08:57;103074.59;;;9.62;80.22
48015;BME280;33780;51.034;7.120;2023-02-12T11:11:27;103072.63;;;9.66;80.19
48015;BME280;33780;51.034;7.120;2023-02-12T11:16:32;103073.44;;;9.68;80.16
48015;BME280;33780;51.034;7.120;2023-02-12T11:19:04;103060.03;;;9.69;80.05
48015;BME280;33780;51.034;7.120;2023-02-12T11:21:30;103068.84;;;9.72;79.71
48015;BME280;33780;51.034;7.120;2023-02-12T11:23:56;103063.50;;;9.72;79.78
48015;BME280;33780;51.034;7.120;2023-02-12T11:26:27;103068.78;;;9.73;79.80
48015;BME280;33780;51.034;7.120;2023-02-12T11:29:18;103056.28;;;9.74;79.42
48015;BME280;33780;51.034;7.120;2023-02-12T11:31:59;103057.06;;;9.76;79.52
48015;BME280;33780;51.034;7.120;2023-02-12T11:34:24;103048.91;;;9.79;79.74
48015;BME280;33780;51.034;7.120;2023-02-12T11:36:52;103054.09;;;9.82;79.49
48015;BME280;33780;51.034;7.120;2023-02-12T11:39:21;103047.69;;;9.86;79.38
48015;BME280;33780;51.034;7.120;2023-02-12T11:42:16;103043.19;;;9.86;79.15
48015;BME280;33780;51.034;7.120;2023-02-12T11:44:48;103039.56;;;9.87;79.13
48015;BME280;33780;51.034;7.120;2023-02-12T11:47:20;103044.81;;;9.90;79.09
48015;BME280;33780;51.034;7.120;2023-02-12T11:50:14;103033.03;;;9.94;79.38
48015;BME280;33780;51.034;7.120;2023-02-12T11:52:42;103028.41;;;9.98;79.05
48015;BME280;33780;51.034;7.120;2023-02-12T11:55:26;103031.88;;;10.00;79.14
48015;BME280;33780;51.034;7.120;2023-02-12T11:57:54;103034.41;;;10.03;79.04
48015;BME280;33780;51.034;7.120;2023-02-12T12:00:32;103027.16;;;10.05;78.93
48015;BME280;33780;51.034;7.120;2023-02-12T12:03:05;103026.09;;;10.09;78.82
48015;BME280;33780;51.034;7.120;2023-02-12T12:05:37;103023.34;;;10.11;79.02
48015;BME280;33780;51.034;7.120;2023-02-12T12:08:13;103017.06;;;10.12;78.17
48015;BME280;33780;51.034;7.120;2023-02-12T12:10:47;103012.50;;;10.14;78.42
48015;BME280;33780;51.034;7.120;2023-02-12T12:13:18;103016.91;;;10.15;78.09
48015;BME280;33780;51.034;7.120;2023-02-12T12:16:02;103015.03;;;10.17;78.59
48015;BME280;33780;51.034;7.120;2023-02-12T12:19:01;103010.47;;;10.19;78.33
48015;BME280;33780;51.034;7.120;2023-02-12T12:21:58;103014.84;;;10.21;77.76
48015;BME280;33780;51.034;7.120;2023-02-12T12:24:42;103008.53;;;10.22;78.02
48015;BME280;33780;51.034;7.120;2023-02-12T12:33:25;102996.53;;;10.31;78.20
48015;BME280;33780;51.034;7.120;2023-02-12T12:36:07;102993.78;;;10.33;77.80
48015;BME280;33780;51.034;7.120;2023-02-12T12:41:25;102991.03;;;10.34;77.38
48015;BME280;33780;51.034;7.120;2023-02-12T13:00:30;102955.50;;;10.49;77.03
48015;BME280;33780;51.034;7.120;2023-02-12T13:06:17;102954.16;;;10.58;77.19
48015;BME280;33780;51.034;7.120;2023-02-12T13:09:14;102949.44;;;10.63;77.46
48015;BME280;33780;51.034;7.120;2023-02-12T13:14:43;102943.78;;;10.69;77.15
48015;BME280;33780;51.034;7.120;2023-02-12T13:17:20;102946.28;;;10.72;77.01
48015;BME280;33780;51.034;7.120;2023-02-12T13:20:09;102939.84;;;10.76;77.29
48015;BME280;33780;51.034;7.120;2023-02-12T13:22:58;102945.25;;;10.75;76.13
48015;BME280;33780;51.034;7.120;2023-02-12T13:25:30;102937.31;;;10.73;76.46
48015;BME280;33780;51.034;7.120;2023-02-12T13:28:00;102933.69;;;10.74;76.70
48015;BME280;33780;51.034;7.120;2023-02-12T13:30:41;102935.41;;;10.75;76.70
48015;BME280;33780;51.034;7.120;2023-02-12T13:33:19;102936.28;;;10.76;76.67
48015;BME280;33780;51.034;7.120;2023-02-12T13:35:48;102924.63;;;10.77;76.62
48015;BME280;33780;51.034;7.120;2023-02-12T13:38:34;102932.59;;;10.78;76.24
48015;BME280;33780;51.034;7.120;2023-02-12T13:41:05;102922.75;;;10.79;76.13
48015;BME280;33780;51.034;7.120;2023-02-12T13:46:28;102920.00;;;10.80;76.39
48015;BME280;33780;51.034;7.120;2023-02-12T13:49:20;102922.69;;;10.80;76.39
48015;BME280;33780;51.034;7.120;2023-02-12T13:52:04;102923.53;;;10.81;76.49
48015;BME280;33780;51.034;7.120;2023-02-12T13:57:34;102919.84;;;10.83;76.53
48015;BME280;33780;51.034;7.120;2023-02-12T13:59:59;102918.88;;;10.84;76.27
48015;BME280;33780;51.034;7.120;2023-02-12T14:02:40;102914.31;;;10.86;76.42
48015;BME280;33780;51.034;7.120;2023-02-12T14:05:22;102907.06;;;10.88;76.31
48015;BME280;33780;51.034;7.120;2023-02-12T14:08:00;102907.94;;;10.89;75.80
48015;BME280;33780;51.034;7.120;2023-02-12T14:10:30;102898.09;;;10.89;76.09
48015;BME280;33780;51.034;7.120;2023-02-12T14:13:13;102909.56;;;10.92;76.00
48015;BME280;33780;51.034;7.120;2023-02-12T14:15:42;102905.09;;;10.92;75.89
48015;BME280;33780;51.034;7.120;2023-02-12T14:18:33;102898.78;;;10.93;76.08
48015;BME280;33780;51.034;7.120;2023-02-12T14:23:46;102899.50;;;10.97;75.79
48015;BME280;33780;51.034;7.120;2023-02-12T14:26:18;102898.69;;;10.95;75.36
48015;BME280;33780;51.034;7.120;2023-02-12T14:28:56;102894.28;;;10.94;75.60
48015;BME280;33780;51.034;7.120;2023-02-12T14:36:38;102904.22;;;10.92;75.59
48015;BME280;33780;51.034;7.120;2023-02-12T14:41:49;102911.38;;;10.91;75.62
48015;BME280;33780;51.034;7.120;2023-02-12T14:49:51;102906.19;;;10.88;75.35
48015;BME280;33780;51.034;7.120;2023-02-12T14:52:25;102911.56;;;10.88;75.25
48015;BME280;33780;51.034;7.120;2023-02-12T14:55:16;102911.63;;;10.86;75.37
48015;BME280;33780;51.034;7.120;2023-02-12T14:57:43;102905.41;;;10.86;75.27
48015;BME280;33780;51.034;7.120;2023-02-12T15:00:22;102904.56;;;10.85;75.51
48015;BME280;33780;51.034;7.120;2023-02-12T15:02:51;102908.19;;;10.84;75.35
48015;BME280;33780;51.034;7.120;2023-02-12T15:05:23;102911.81;;;10.83;75.15
48015;BME280;33780;51.034;7.120;2023-02-12T15:08:02;102906.59;;;10.80;75.26
48015;BME280;33780;51.034;7.120;2023-02-12T15:13:53;102912.91;;;10.79;75.62
48015;BME280;33780;51.034;7.120;2023-02-12T15:16:54;102908.50;;;10.78;75.30
48015;BME280;33780;51.034;7.120;2023-02-12T15:24:49;102897.06;;;10.75;75.34
48015;BME280;33780;51.034;7.120;2023-02-12T15:27:18;102906.81;;;10.76;75.10
48015;BME280;33780;51.034;7.120;2023-02-12T15:29:48;102902.41;;;10.75;75.50
48015;BME280;33780;51.034;7.120;2023-02-12T15:32:26;102896.13;;;10.76;75.16
48015;BME280;33780;51.034;7.120;2023-02-12T15:34:53;102890.84;;;10.74;75.39